Elisabeth K — PBEO — position and weather

sailwx.info

Track history (hours):
 
Tides and Currents Weather Stations Pressure Air Temp Water Temp Dewpoint Dewpoint Depression Visibility Wind Speed Wind Dir Waves Ship Positions

Elisabeth K

Last reported at 2018-Feb-25 04:18 UTC. Time now 2018-Feb-25 12:14 UTC.
Position N 39°23' E 003°35'.

Length 87.9 m; beam 12.8 m; draft 5.5 m.

Type: Cargo ship. MMSI: 245712000.

Date/timePositionNaut miles runAvg speedWind from/ knotsBaromVisibWave heightAir tempDewpointWater temp
2018-Feb-25 04:18N 39°23' E 003°35'23 9.8
2018-Feb-25 01:58N 39°10' E 003°10'8 9.9
2018-Feb-25 01:08N 39°06' E 003°01'1 9.5
2018-Feb-25 00:58N 39°05' E 002°60'17810.1
2018-Feb-24 07:15N 37°38' W 000°19'210.2
2018-Feb-24 07:00N 37°37' W 000°22'510.3
2018-Feb-24 06:30N 37°35' W 000°27'510.4
2018-Feb-24 06:00N 37°32' W 000°33'610.3
2018-Feb-24 05:23N 37°28' W 000°39'410.1
2018-Feb-24 05:00N 37°25' W 000°43'5 9.9
2018-Feb-24 04:30N 37°22' W 000°47'5 9.8
2018-Feb-24 03:57N 37°19' W 000°53'222 9.7
2018-Feb-23 04:58N 35°59' W 005°11'612.1
2018-Feb-23 04:31N 35°58' W 005°18'612.5
2018-Feb-23 04:01N 35°58' W 005°25'711.9
2018-Feb-23 03:23N 35°56' W 005°34'10710.7
2018-Feb-22 17:20N 36°15' W 007°45'410.8
2018-Feb-22 16:59N 36°16' W 007°49'510.4
2018-Feb-22 16:30N 36°17' W 007°56'138 8.7
2018-Feb-22 00:39N 37°59' W 009°53'210.8
2018-Feb-22 00:30N 38°01' W 009°53'510.6
2018-Feb-22 00:01N 38°06' W 009°54'510.6
2018-Feb-21 23:30N 38°11' W 009°56'610.8
2018-Feb-21 22:56N 38°17' W 009°58'410.4
2018-Feb-21 22:30N 38°21' W 009°59'510.0
2018-Feb-21 22:00N 38°26' W 010°00'5 9.8
2018-Feb-21 21:30N 38°31' W 010°02'9 9.9
2018-Feb-21 20:33N 38°40' W 010°04'010.0
2018-Feb-21 20:30N 38°41' W 010°04'510.1
2018-Feb-21 20:00N 38°46' W 010°05'510.3
2018-Feb-21 19:29N 38°51' W 010°05'510.0
2018-Feb-21 19:00N 38°56' W 010°04'5 9.7
2018-Feb-21 18:30N 39°00' W 010°01'510.1
2018-Feb-21 18:00N 39°05' W 009°59'5 9.9
2018-Feb-21 17:30N 39°09' W 009°56'510.0
2018-Feb-21 17:00N 39°14' W 009°53'510.0
2018-Feb-21 16:30N 39°18' W 009°50'810.1
2018-Feb-21 15:40N 39°26' W 009°46'510.2
2018-Feb-21 15:10N 39°30' W 009°43'310.1
2018-Feb-21 14:50N 39°33' W 009°40'  
2018-Feb-18 12:26N 39°39' W 009°35'16 9.6
2018-Feb-18 10:46N 39°25' W 009°44'3 9.2
2018-Feb-18 10:29N 39°22' W 009°44'4 9.0
2018-Feb-18 10:00N 39°18' W 009°45'4 8.9
2018-Feb-18 09:30N 39°13' W 009°46'4 8.8
2018-Feb-18 09:00N 39°09' W 009°47'4 9.0
2018-Feb-18 08:30N 39°05' W 009°48'5 9.0
2018-Feb-18 08:00N 39°00' W 009°49'4 9.1
2018-Feb-18 07:30N 38°56' W 009°50'4 8.0
2018-Feb-18 07:00N 38°52' W 009°50'4 7.5
2018-Feb-18 06:30N 38°48' W 009°50'3 7.2
2018-Feb-18 06:01N 38°44' W 009°50'3 6.8
2018-Feb-18 05:30N 38°41' W 009°50'3 6.7
2018-Feb-18 05:00N 38°38' W 009°49'3 6.9
2018-Feb-18 04:30N 38°34' W 009°48'3 7.0
2018-Feb-18 04:01N 38°31' W 009°47'4 7.3
2018-Feb-18 03:30N 38°27' W 009°46'3 7.0
2018-Feb-18 03:00N 38°24' W 009°45'3 6.8
2018-Feb-18 02:30N 38°21' W 009°44'3 6.5
2018-Feb-18 02:00N 38°18' W 009°43'4 6.9
2018-Feb-18 01:22N 38°13' W 009°42'3 6.8
2018-Feb-18 01:00N 38°11' W 009°41'4 6.8
2018-Feb-18 00:29N 38°07' W 009°40'6 7.1
2018-Feb-17 23:39N 38°02' W 009°38'11 7.1
2018-Feb-17 22:06N 37°51' W 009°35'1 7.5
2018-Feb-17 22:00N 37°50' W 009°35'12 8.0
2018-Feb-17 20:32N 37°39' W 009°31'0 8.1
2018-Feb-17 20:30N 37°39' W 009°31'  
2018-Feb-15 14:11N 37°25' W 000°58'210.3
2018-Feb-15 13:59N 37°26' W 000°56'510.1
2018-Feb-15 13:30N 37°28' W 000°51'5 9.9
2018-Feb-15 13:00N 37°31' W 000°45'5 9.9
2018-Feb-15 12:28N 37°32' W 000°39'5 9.8
2018-Feb-15 12:00N 37°34' W 000°33'5 9.6
2018-Feb-15 11:30N 37°38' W 000°30'5 9.5
2018-Feb-15 11:00N 37°42' W 000°27'  
Track history (hours):
 
Tides and Currents Weather Stations Pressure Air Temp Water Temp Dewpoint Dewpoint Depression Visibility Wind Speed Wind Dir Waves Ship Positions

Elisabeth K

Last reported at 2018-Feb-25 04:18 UTC. Time now 2018-Feb-25 12:14 UTC.
Position N 39°23' E 003°35'.

Length 87.9 m; beam 12.8 m; draft 5.5 m.

Type: Cargo ship. MMSI: 245712000.

Date/timePositionNaut miles runAvg speedWind from/ knotsBaromVisibWave heightAir tempDewpointWater temp
2018-Feb-25 04:18N 39°23' E 003°35'23 9.8
2018-Feb-25 01:58N 39°10' E 003°10'8 9.9
2018-Feb-25 01:08N 39°06' E 003°01'1 9.5
2018-Feb-25 00:58N 39°05' E 002°60'17810.1
2018-Feb-24 07:15N 37°38' W 000°19'210.2
2018-Feb-24 07:00N 37°37' W 000°22'510.3
2018-Feb-24 06:30N 37°35' W 000°27'510.4
2018-Feb-24 06:00N 37°32' W 000°33'610.3
2018-Feb-24 05:23N 37°28' W 000°39'410.1
2018-Feb-24 05:00N 37°25' W 000°43'5 9.9
2018-Feb-24 04:30N 37°22' W 000°47'5 9.8
2018-Feb-24 03:57N 37°19' W 000°53'222 9.7
2018-Feb-23 04:58N 35°59' W 005°11'612.1
2018-Feb-23 04:31N 35°58' W 005°18'612.5
2018-Feb-23 04:01N 35°58' W 005°25'711.9
2018-Feb-23 03:23N 35°56' W 005°34'10710.7
2018-Feb-22 17:20N 36°15' W 007°45'410.8
2018-Feb-22 16:59N 36°16' W 007°49'510.4
2018-Feb-22 16:30N 36°17' W 007°56'138 8.7
2018-Feb-22 00:39N 37°59' W 009°53'210.8
2018-Feb-22 00:30N 38°01' W 009°53'510.6
2018-Feb-22 00:01N 38°06' W 009°54'510.6
2018-Feb-21 23:30N 38°11' W 009°56'610.8
2018-Feb-21 22:56N 38°17' W 009°58'410.4
2018-Feb-21 22:30N 38°21' W 009°59'510.0
2018-Feb-21 22:00N 38°26' W 010°00'5 9.8
2018-Feb-21 21:30N 38°31' W 010°02'9 9.9
2018-Feb-21 20:33N 38°40' W 010°04'010.0
2018-Feb-21 20:30N 38°41' W 010°04'510.1
2018-Feb-21 20:00N 38°46' W 010°05'510.3
2018-Feb-21 19:29N 38°51' W 010°05'510.0
2018-Feb-21 19:00N 38°56' W 010°04'5 9.7
2018-Feb-21 18:30N 39°00' W 010°01'510.1
2018-Feb-21 18:00N 39°05' W 009°59'5 9.9
2018-Feb-21 17:30N 39°09' W 009°56'510.0
2018-Feb-21 17:00N 39°14' W 009°53'510.0
2018-Feb-21 16:30N 39°18' W 009°50'810.1
2018-Feb-21 15:40N 39°26' W 009°46'510.2
2018-Feb-21 15:10N 39°30' W 009°43'310.1
2018-Feb-21 14:50N 39°33' W 009°40'  
2018-Feb-18 12:26N 39°39' W 009°35'16 9.6
2018-Feb-18 10:46N 39°25' W 009°44'3 9.2
2018-Feb-18 10:29N 39°22' W 009°44'4 9.0
2018-Feb-18 10:00N 39°18' W 009°45'4 8.9
2018-Feb-18 09:30N 39°13' W 009°46'4 8.8
2018-Feb-18 09:00N 39°09' W 009°47'4 9.0
2018-Feb-18 08:30N 39°05' W 009°48'5 9.0
2018-Feb-18 08:00N 39°00' W 009°49'4 9.1
2018-Feb-18 07:30N 38°56' W 009°50'4 8.0
2018-Feb-18 07:00N 38°52' W 009°50'4 7.5
2018-Feb-18 06:30N 38°48' W 009°50'3 7.2
2018-Feb-18 06:01N 38°44' W 009°50'3 6.8
2018-Feb-18 05:30N 38°41' W 009°50'3 6.7
2018-Feb-18 05:00N 38°38' W 009°49'3 6.9
2018-Feb-18 04:30N 38°34' W 009°48'3 7.0
2018-Feb-18 04:01N 38°31' W 009°47'4 7.3
2018-Feb-18 03:30N 38°27' W 009°46'3 7.0
2018-Feb-18 03:00N 38°24' W 009°45'3 6.8
2018-Feb-18 02:30N 38°21' W 009°44'3 6.5
2018-Feb-18 02:00N 38°18' W 009°43'4 6.9
2018-Feb-18 01:22N 38°13' W 009°42'3 6.8
2018-Feb-18 01:00N 38°11' W 009°41'4 6.8
2018-Feb-18 00:29N 38°07' W 009°40'6 7.1
2018-Feb-17 23:39N 38°02' W 009°38'11 7.1
2018-Feb-17 22:06N 37°51' W 009°35'1 7.5
2018-Feb-17 22:00N 37°50' W 009°35'12 8.0
2018-Feb-17 20:32N 37°39' W 009°31'0 8.1
2018-Feb-17 20:30N 37°39' W 009°31'  
2018-Feb-15 14:11N 37°25' W 000°58'210.3
2018-Feb-15 13:59N 37°26' W 000°56'510.1
2018-Feb-15 13:30N 37°28' W 000°51'5 9.9
2018-Feb-15 13:00N 37°31' W 000°45'5 9.9
2018-Feb-15 12:28N 37°32' W 000°39'5 9.8
2018-Feb-15 12:00N 37°34' W 000°33'5 9.6
2018-Feb-15 11:30N 37°38' W 000°30'5 9.5
2018-Feb-15 11:00N 37°42' W 000°27'  

Dump ship's entire track history